createdAt,value
2022-08-03T00:03:25.006Z,2.17
2022-08-03T00:09:26.569Z,2.42
2022-08-03T00:15:37.038Z,2.13
2022-08-03T00:21:38.507Z,2.05
2022-08-03T00:27:39.971Z,2.10
2022-08-03T00:33:58.180Z,2.40
2022-08-03T00:40:01.269Z,1.90
2022-08-03T00:46:05.159Z,1.92
2022-08-03T00:52:07.836Z,2.38
2022-08-03T00:58:11.947Z,2.30
2022-08-03T01:04:13.400Z,2.03
2022-08-03T01:10:14.942Z,2.00
2022-08-03T01:16:16.420Z,2.08
2022-08-03T01:22:18.052Z,2.17
2022-08-03T01:28:19.670Z,1.80
2022-08-03T01:34:21.189Z,1.70
2022-08-03T01:40:22.699Z,2.33
2022-08-03T01:46:24.253Z,2.00
2022-08-03T01:52:25.814Z,1.90
2022-08-03T01:58:27.250Z,2.30
2022-08-03T02:04:28.749Z,2.10
2022-08-03T02:10:35.185Z,2.50
2022-08-03T02:16:37.181Z,1.98
2022-08-03T02:22:38.704Z,1.85
2022-08-03T02:28:40.146Z,1.75
2022-08-03T02:34:41.605Z,2.22
2022-08-03T02:40:43.113Z,1.80
2022-08-03T02:46:44.752Z,1.88
2022-08-03T02:52:46.254Z,2.03
2022-08-03T02:58:47.786Z,1.90
2022-08-03T03:05:52.534Z,2.08
2022-08-03T03:11:10.694Z,2.20
2022-08-03T03:17:12.149Z,2.00
2022-08-03T03:23:13.580Z,2.20
2022-08-03T03:29:15.051Z,1.95
2022-08-03T03:35:16.804Z,2.13
2022-08-03T03:41:18.304Z,2.50
2022-08-03T03:47:32.715Z,2.33
2022-08-03T03:53:34.492Z,2.47
2022-08-03T03:59:35.985Z,2.42
2022-08-03T04:06:09.872Z,2.47
2022-08-03T04:12:11.328Z,2.20
2022-08-03T04:18:12.779Z,2.53
2022-08-03T04:24:14.229Z,1.95
2022-08-03T04:30:15.694Z,2.58
2022-08-03T04:36:17.218Z,2.40
2022-08-03T04:42:18.967Z,2.40
2022-08-03T04:48:20.610Z,2.90
2022-08-03T04:54:22.069Z,3.10
2022-08-03T05:00:23.565Z,2.95
2022-08-03T05:06:25.273Z,2.50
2022-08-03T05:12:32.067Z,3.25
2022-08-03T05:18:34.110Z,3.28
2022-08-03T05:24:35.566Z,2.55
2022-08-03T05:30:37.244Z,6.00
2022-08-03T05:36:39.768Z,8.05
2022-08-03T05:42:41.706Z,8.63
2022-08-03T05:48:43.270Z,8.05
2022-08-03T05:54:55.997Z,8.73
2022-08-03T06:00:59.087Z,8.77
2022-08-03T06:07:00.902Z,7.72
2022-08-03T06:13:02.429Z,6.07
2022-08-03T06:19:04.026Z,6.00
2022-08-03T06:25:08.237Z,4.75
2022-08-03T06:31:12.833Z,5.30
2022-08-03T06:37:14.272Z,6.50
2022-08-03T06:43:16.043Z,6.00
2022-08-03T06:49:17.833Z,6.22
2022-08-03T06:55:19.352Z,5.07
2022-08-03T07:01:20.954Z,5.32
2022-08-03T07:07:22.893Z,5.30
2022-08-03T07:13:24.414Z,4.93
2022-08-03T07:19:26.374Z,5.05
2022-08-03T07:25:28.035Z,5.15
2022-08-03T07:31:34.408Z,5.32
2022-08-03T07:37:36.294Z,4.15
2022-08-03T07:43:37.881Z,4.57
2022-08-03T07:49:39.481Z,4.68
2022-08-03T07:55:41.013Z,4.63
2022-08-03T08:01:42.616Z,4.32
2022-08-03T08:07:44.220Z,4.60
2022-08-03T08:13:52.366Z,4.00
2022-08-03T08:19:53.884Z,4.63
2022-08-03T08:25:55.402Z,5.15
2022-08-03T08:31:56.902Z,4.35
2022-08-03T08:37:58.548Z,4.78
2022-08-03T08:44:08.431Z,4.38
2022-08-03T08:50:15.529Z,3.97
2022-08-03T08:56:29.010Z,4.80
2022-08-03T09:02:30.527Z,5.35
2022-08-03T09:08:32.102Z,6.15
2022-08-03T09:14:39.146Z,5.63
2022-08-03T09:20:43.910Z,4.75
2022-08-03T09:26:45.438Z,4.93
2022-08-03T09:32:46.956Z,5.13
2022-08-03T09:38:48.690Z,4.65
2022-08-03T09:44:51.734Z,5.75
2022-08-03T09:50:58.440Z,7.22
2022-08-03T09:57:13.947Z,7.65
2022-08-03T10:03:15.560Z,9.60
2022-08-03T10:09:17.098Z,9.82
2022-08-03T10:16:23.605Z,11.93
2022-08-03T10:21:40.628Z,13.40
2022-08-03T10:27:42.162Z,13.35
2022-08-03T10:33:52.012Z,18.65
2022-08-03T10:39:54.198Z,17.77
2022-08-03T10:45:55.715Z,18.38
2022-08-03T10:51:57.247Z,18.85
2022-08-03T10:57:59.262Z,18.55
2022-08-03T11:04:00.795Z,17.20
2022-08-03T11:10:02.319Z,15.40
2022-08-03T11:16:07.116Z,15.05
2022-08-03T11:22:10.294Z,13.25
2022-08-03T11:28:14.408Z,13.30
2022-08-03T11:34:16.350Z,10.50
2022-08-03T11:40:17.871Z,11.30
2022-08-03T11:46:29.368Z,9.05
2022-08-03T11:52:31.485Z,9.98
2022-08-03T11:59:03.380Z,7.22
2022-08-03T12:04:54.558Z,8.30
2022-08-03T12:10:56.016Z,7.38
2022-08-03T12:16:57.491Z,6.70
2022-08-03T12:23:00.195Z,5.82
2022-08-03T12:29:01.800Z,5.72
2022-08-03T12:35:05.216Z,5.05
2022-08-03T12:41:06.871Z,5.18
2022-08-03T12:47:10.461Z,4.97
2022-08-03T12:53:12.444Z,4.70
2022-08-03T12:59:13.972Z,4.95
2022-08-03T13:05:18.052Z,4.10
2022-08-03T13:11:19.857Z,3.92
2022-08-03T13:17:21.658Z,3.60
2022-08-03T13:23:23.319Z,3.67
2022-08-03T13:29:24.785Z,3.75
2022-08-03T13:35:26.255Z,3.40
2022-08-03T13:41:31.083Z,3.50
2022-08-03T13:47:32.790Z,2.97
2022-08-03T13:53:34.263Z,3.10
2022-08-03T13:59:35.784Z,3.03
2022-08-03T14:05:39.210Z,2.97
2022-08-03T14:12:07.829Z,3.08
2022-08-03T14:18:02.541Z,2.83
2022-08-03T14:24:04.004Z,2.28
2022-08-03T14:30:05.591Z,2.45
2022-08-03T14:36:07.112Z,3.00
2022-08-03T14:42:08.658Z,3.00
2022-08-03T14:50:31.912Z,3.08
2022-08-03T14:54:31.727Z,2.83
2022-08-03T15:00:33.173Z,2.40
2022-08-03T15:06:34.697Z,2.28
2022-08-03T15:12:36.187Z,2.70
2022-08-03T15:18:37.654Z,3.97
2022-08-03T15:24:39.127Z,3.80
2022-08-03T15:30:40.603Z,3.80
2022-08-03T15:36:42.118Z,4.45
2022-08-03T15:42:43.570Z,5.05
2022-08-03T15:48:45.174Z,5.05
2022-08-03T15:54:46.705Z,4.95
2022-08-03T16:00:48.172Z,4.97
2022-08-03T16:06:49.694Z,4.15
2022-08-03T16:12:51.294Z,4.13
2022-08-03T16:18:52.741Z,4.40
2022-08-03T16:24:54.192Z,3.90
2022-08-03T16:30:55.622Z,3.47
2022-08-03T16:36:57.118Z,3.63
2022-08-03T16:42:58.600Z,4.13
2022-08-03T16:49:00.041Z,2.90
2022-08-03T16:55:02.048Z,3.90
2022-08-03T17:01:21.097Z,3.80
2022-08-03T17:07:24.220Z,2.97
2022-08-03T17:13:39.034Z,2.88
2022-08-03T17:19:41.624Z,3.22
2022-08-03T17:26:02.139Z,2.60
2022-08-03T17:32:09.773Z,3.17
2022-08-03T17:38:15.769Z,2.50
2022-08-03T17:44:33.005Z,2.60
2022-08-03T17:50:40.269Z,2.72
2022-08-03T17:56:46.397Z,2.60
2022-08-03T18:03:06.929Z,3.15
2022-08-03T18:10:04.288Z,2.50
2022-08-03T18:15:33.071Z,3.10
2022-08-03T18:22:02.123Z,3.10
2022-08-03T18:27:58.747Z,3.63
2022-08-03T18:34:32.119Z,2.78
2022-08-03T18:40:22.470Z,3.17
2022-08-03T18:46:24.307Z,3.45
2022-08-03T18:52:27.710Z,3.30
2022-08-03T18:58:29.493Z,3.33
2022-08-03T19:04:31.441Z,2.80
2022-08-03T19:10:34.929Z,3.10
2022-08-03T19:16:38.728Z,3.50
2022-08-03T19:22:45.882Z,3.80
2022-08-03T19:28:47.906Z,3.33
2022-08-03T19:34:54.118Z,3.28
2022-08-03T19:40:57.279Z,3.25
2022-08-03T19:47:01.125Z,3.38
2022-08-03T19:53:02.995Z,3.75
2022-08-03T19:59:04.992Z,3.65
2022-08-03T20:05:15.639Z,3.28
2022-08-03T20:11:17.350Z,3.60
2022-08-03T20:17:21.104Z,3.53
2022-08-03T20:23:22.828Z,3.50
2022-08-03T20:29:42.578Z,2.90
2022-08-03T20:35:48.950Z,2.85
2022-08-03T20:42:07.790Z,3.35
2022-08-03T20:48:10.451Z,3.45
2022-08-03T20:54:29.003Z,3.22
2022-08-03T21:00:32.210Z,3.00
2022-08-03T21:06:33.732Z,2.80
2022-08-03T21:12:35.392Z,3.10
2022-08-03T21:18:36.935Z,2.97
2022-08-03T21:24:38.460Z,2.65
2022-08-03T21:30:39.926Z,2.90
2022-08-03T21:36:41.399Z,3.63
2022-08-03T21:42:42.847Z,2.70
2022-08-03T21:48:44.937Z,2.70
2022-08-03T21:54:46.427Z,2.60
2022-08-03T22:00:47.907Z,2.55
2022-08-03T22:06:49.369Z,2.75
2022-08-03T22:12:50.881Z,2.40
2022-08-03T22:18:52.392Z,2.53
2022-08-03T22:24:54.033Z,2.50
2022-08-03T22:30:57.391Z,2.58
2022-08-03T22:37:00.363Z,2.60
2022-08-03T22:43:02.109Z,2.58
2022-08-03T22:49:03.598Z,2.42
2022-08-03T22:55:05.082Z,2.58
2022-08-03T23:01:06.539Z,2.65
2022-08-03T23:07:09.352Z,2.38
2022-08-03T23:13:10.783Z,1.95
2022-08-03T23:19:17.277Z,2.08
2022-08-03T23:25:27.241Z,2.20
2022-08-03T23:31:28.800Z,2.50
2022-08-03T23:37:30.316Z,2.50
2022-08-03T23:43:45.119Z,2.10
2022-08-03T23:49:53.678Z,2.03
2022-08-03T23:55:55.125Z,2.05
